sensor_id;sensor_type;location;lat;lon;timestamp;pressure;altitude;pressure_sealevel;temperature;humidity
46392;BME280;32098;49.448;7.904;2023-01-31T00:01:32;99116.41;;;0.80;85.08
46392;BME280;32098;49.448;7.904;2023-01-31T00:04:02;99121.16;;;0.67;85.39
46392;BME280;32098;49.448;7.904;2023-01-31T00:06:32;99123.13;;;0.65;85.62
46392;BME280;32098;49.448;7.904;2023-01-31T00:09:00;99132.50;;;0.67;85.48
46392;BME280;32098;49.448;7.904;2023-01-31T00:11:28;99123.13;;;0.65;85.56
46392;BME280;32098;49.448;7.904;2023-01-31T00:13:57;99132.22;;;0.70;85.43
46392;BME280;32098;49.448;7.904;2023-01-31T00:16:24;99117.69;;;0.66;85.41
46392;BME280;32098;49.448;7.904;2023-01-31T00:18:51;99126.13;;;0.70;85.64
46392;BME280;32098;49.448;7.904;2023-01-31T00:21:20;99130.56;;;0.69;84.92
46392;BME280;32098;49.448;7.904;2023-01-31T00:23:48;99124.75;;;0.66;85.20
46392;BME280;32098;49.448;7.904;2023-01-31T00:26:24;99126.69;;;0.64;85.14
46392;BME280;32098;49.448;7.904;2023-01-31T00:28:53;99120.31;;;0.66;84.92
46392;BME280;32098;49.448;7.904;2023-01-31T00:31:21;99072.88;;;0.41;84.88
46392;BME280;32098;49.448;7.904;2023-01-31T00:33:50;99116.19;;;0.64;84.97
46392;BME280;32098;49.448;7.904;2023-01-31T00:36:19;99117.69;;;0.66;85.17
46392;BME280;32098;49.448;7.904;2023-01-31T00:38:50;99108.00;;;0.67;85.01
46392;BME280;32098;49.448;7.904;2023-01-31T00:41:18;99116.47;;;0.61;85.23
46392;BME280;32098;49.448;7.904;2023-01-31T00:43:45;99124.22;;;0.62;84.74
46392;BME280;32098;49.448;7.904;2023-01-31T00:46:11;99108.06;;;0.57;85.61
46392;BME280;32098;49.448;7.904;2023-01-31T00:48:38;99112.88;;;0.62;85.28
46392;BME280;32098;49.448;7.904;2023-01-31T00:51:05;99112.19;;;0.60;85.01
46392;BME280;32098;49.448;7.904;2023-01-31T00:53:32;99075.09;;;0.36;85.12
46392;BME280;32098;49.448;7.904;2023-01-31T00:56:21;99118.97;;;0.62;84.90
46392;BME280;32098;49.448;7.904;2023-01-31T00:58:51;99119.38;;;0.67;85.20
46392;BME280;32098;49.448;7.904;2023-01-31T01:01:21;99101.69;;;0.60;85.36
46392;BME280;32098;49.448;7.904;2023-01-31T01:03:49;99114.94;;;0.68;84.79
46392;BME280;32098;49.448;7.904;2023-01-31T01:06:16;99112.31;;;0.68;84.84
46392;BME280;32098;49.448;7.904;2023-01-31T01:08:43;99119.88;;;0.71;84.71
46392;BME280;32098;49.448;7.904;2023-01-31T01:11:15;99116.72;;;0.67;85.09
46392;BME280;32098;49.448;7.904;2023-01-31T01:13:42;99122.00;;;0.67;84.98
46392;BME280;32098;49.448;7.904;2023-01-31T01:16:13;99110.66;;;0.67;84.83
46392;BME280;32098;49.448;7.904;2023-01-31T01:18:40;99128.38;;;0.65;85.22
46392;BME280;32098;49.448;7.904;2023-01-31T01:21:08;99138.28;;;0.71;84.74
46392;BME280;32098;49.448;7.904;2023-01-31T01:23:39;99146.63;;;0.66;85.18
46392;BME280;32098;49.448;7.904;2023-01-31T01:26:16;99148.00;;;0.70;84.70
46392;BME280;32098;49.448;7.904;2023-01-31T01:28:43;99138.88;;;0.65;85.01
46392;BME280;32098;49.448;7.904;2023-01-31T01:31:11;99143.53;;;0.71;84.72
46392;BME280;32098;49.448;7.904;2023-01-31T01:33:39;99155.06;;;0.70;84.82
46392;BME280;32098;49.448;7.904;2023-01-31T01:36:07;99117.53;;;0.41;84.53
46392;BME280;32098;49.448;7.904;2023-01-31T01:38:35;99160.31;;;0.70;84.51
46392;BME280;32098;49.448;7.904;2023-01-31T01:41:03;99150.63;;;0.70;84.75
46392;BME280;32098;49.448;7.904;2023-01-31T01:46:35;99145.50;;;0.69;85.26
46392;BME280;32098;49.448;7.904;2023-01-31T01:49:18;99139.97;;;0.72;84.93
46392;BME280;32098;49.448;7.904;2023-01-31T01:51:47;99148.81;;;0.71;85.44
46392;BME280;32098;49.448;7.904;2023-01-31T01:54:19;99152.81;;;0.75;85.33
46392;BME280;32098;49.448;7.904;2023-01-31T01:56:59;99147.69;;;0.73;85.23
46392;BME280;32098;49.448;7.904;2023-01-31T01:59:34;99146.50;;;0.68;85.39
46392;BME280;32098;49.448;7.904;2023-01-31T02:02:03;99156.84;;;0.69;85.12
46392;BME280;32098;49.448;7.904;2023-01-31T02:04:35;99163.34;;;0.75;85.31
46392;BME280;32098;49.448;7.904;2023-01-31T02:07:02;99161.38;;;0.77;84.91
46392;BME280;32098;49.448;7.904;2023-01-31T02:09:45;99164.28;;;0.74;84.73
46392;BME280;32098;49.448;7.904;2023-01-31T02:12:14;99158.19;;;0.73;85.28
46392;BME280;32098;49.448;7.904;2023-01-31T02:14:41;99165.97;;;0.75;84.99
46392;BME280;32098;49.448;7.904;2023-01-31T02:17:13;99159.88;;;0.74;85.33
46392;BME280;32098;49.448;7.904;2023-01-31T02:20:08;99151.75;;;0.68;85.55
46392;BME280;32098;49.448;7.904;2023-01-31T02:25:47;99138.09;;;0.55;85.19
46392;BME280;32098;49.448;7.904;2023-01-31T02:28:33;99160.69;;;0.75;85.05
46392;BME280;32098;49.448;7.904;2023-01-31T02:31:24;99150.19;;;0.75;85.32
46392;BME280;32098;49.448;7.904;2023-01-31T02:34:09;99157.63;;;0.79;85.23
46392;BME280;32098;49.448;7.904;2023-01-31T02:36:51;99033.41;;;0.13;85.36
46392;BME280;32098;49.448;7.904;2023-01-31T02:42:46;99132.47;;;0.77;85.27
46392;BME280;32098;49.448;7.904;2023-01-31T02:45:33;99041.00;;;0.16;85.21
46392;BME280;32098;49.448;7.904;2023-01-31T02:48:25;99149.34;;;0.74;85.25
46392;BME280;32098;49.448;7.904;2023-01-31T02:53:26;99136.88;;;0.76;84.94
46392;BME280;32098;49.448;7.904;2023-01-31T02:58:57;99081.97;;;0.46;85.12
46392;BME280;32098;49.448;7.904;2023-01-31T03:01:30;99130.78;;;0.76;84.78
46392;BME280;32098;49.448;7.904;2023-01-31T03:03:58;99115.63;;;0.70;84.63
46392;BME280;32098;49.448;7.904;2023-01-31T03:09:03;99125.69;;;0.74;84.74
46392;BME280;32098;49.448;7.904;2023-01-31T03:15:05;99127.19;;;0.77;84.30
46392;BME280;32098;49.448;7.904;2023-01-31T03:20:33;99137.22;;;0.64;83.52
46392;BME280;32098;49.448;7.904;2023-01-31T03:23:16;99140.84;;;0.63;83.81
46392;BME280;32098;49.448;7.904;2023-01-31T03:25:45;99141.13;;;0.60;83.74
46392;BME280;32098;49.448;7.904;2023-01-31T03:28:27;99137.09;;;0.56;83.13
46392;BME280;32098;49.448;7.904;2023-01-31T03:31:21;99132.97;;;0.53;83.26
46392;BME280;32098;49.448;7.904;2023-01-31T03:33:51;99143.22;;;0.47;83.16
46392;BME280;32098;49.448;7.904;2023-01-31T03:36:29;99152.91;;;0.46;83.18
46392;BME280;32098;49.448;7.904;2023-01-31T03:39:18;99137.44;;;0.43;82.79
46392;BME280;32098;49.448;7.904;2023-01-31T03:41:56;99142.69;;;0.43;82.88
46392;BME280;32098;49.448;7.904;2023-01-31T03:47:23;99161.66;;;0.37;82.68
46392;BME280;32098;49.448;7.904;2023-01-31T03:49:51;99154.88;;;0.35;82.76
46392;BME280;32098;49.448;7.904;2023-01-31T03:52:25;99163.19;;;0.30;82.36
46392;BME280;32098;49.448;7.904;2023-01-31T03:54:58;99162.50;;;0.28;83.04
46392;BME280;32098;49.448;7.904;2023-01-31T03:57:34;99170.00;;;0.23;82.86
46392;BME280;32098;49.448;7.904;2023-01-31T04:00:04;99158.34;;;0.16;82.98
46392;BME280;32098;49.448;7.904;2023-01-31T04:02:40;99160.88;;;0.17;83.30
46392;BME280;32098;49.448;7.904;2023-01-31T04:05:14;99162.00;;;0.05;83.32
46392;BME280;32098;49.448;7.904;2023-01-31T04:07:44;99155.34;;;0.01;83.38
46392;BME280;32098;49.448;7.904;2023-01-31T04:10:19;99144.84;;;0.01;82.99
46392;BME280;32098;49.448;7.904;2023-01-31T04:12:45;99152.31;;;-0.04;82.96
46392;BME280;32098;49.448;7.904;2023-01-31T04:15:12;99155.50;;;-0.10;83.63
46392;BME280;32098;49.448;7.904;2023-01-31T04:17:39;99139.88;;;-0.02;82.80
46392;BME280;32098;49.448;7.904;2023-01-31T04:20:06;99150.38;;;-0.11;82.93
46392;BME280;32098;49.448;7.904;2023-01-31T04:22:33;99147.09;;;-0.42;82.83
46392;BME280;32098;49.448;7.904;2023-01-31T04:25:00;99125.50;;;-0.74;82.88
46392;BME280;32098;49.448;7.904;2023-01-31T04:27:27;99156.44;;;-0.49;83.65
46392;BME280;32098;49.448;7.904;2023-01-31T04:29:53;99147.06;;;-0.52;83.33
46392;BME280;32098;49.448;7.904;2023-01-31T04:32:20;99155.66;;;-0.50;83.35
46392;BME280;32098;49.448;7.904;2023-01-31T04:34:46;99159.75;;;-0.57;84.85
46392;BME280;32098;49.448;7.904;2023-01-31T04:37:13;99153.41;;;-0.54;84.89
46392;BME280;32098;49.448;7.904;2023-01-31T04:39:39;99154.25;;;-0.54;84.67
46392;BME280;32098;49.448;7.904;2023-01-31T04:42:06;99151.75;;;-0.55;84.67
46392;BME280;32098;49.448;7.904;2023-01-31T04:44:32;99135.88;;;-0.63;84.24
46392;BME280;32098;49.448;7.904;2023-01-31T04:46:59;99138.09;;;-0.59;84.09
46392;BME280;32098;49.448;7.904;2023-01-31T04:49:25;99121.38;;;-0.67;84.18
46392;BME280;32098;49.448;7.904;2023-01-31T04:51:52;99143.63;;;-0.52;83.98
46392;BME280;32098;49.448;7.904;2023-01-31T04:54:18;99145.16;;;-0.50;83.32
46392;BME280;32098;49.448;7.904;2023-01-31T04:56:45;99149.81;;;-0.53;82.92
46392;BME280;32098;49.448;7.904;2023-01-31T04:59:12;99139.19;;;-0.61;83.05
46392;BME280;32098;49.448;7.904;2023-01-31T05:01:38;99140.44;;;-0.65;83.17
46392;BME280;32098;49.448;7.904;2023-01-31T05:04:07;99153.13;;;-0.70;82.93
46392;BME280;32098;49.448;7.904;2023-01-31T05:06:34;99122.16;;;-0.95;83.03
46392;BME280;32098;49.448;7.904;2023-01-31T05:09:00;99145.09;;;-0.88;82.96
46392;BME280;32098;49.448;7.904;2023-01-31T05:11:28;99119.66;;;-0.97;84.36
46392;BME280;32098;49.448;7.904;2023-01-31T05:13:54;99136.53;;;-0.80;84.37
46392;BME280;32098;49.448;7.904;2023-01-31T05:16:21;99115.94;;;-0.94;84.19
46392;BME280;32098;49.448;7.904;2023-01-31T05:18:47;99119.53;;;-0.95;83.83
46392;BME280;32098;49.448;7.904;2023-01-31T05:21:16;99116.94;;;-0.86;82.95
46392;BME280;32098;49.448;7.904;2023-01-31T05:23:42;99124.13;;;-0.78;83.65
46392;BME280;32098;49.448;7.904;2023-01-31T05:26:09;99121.06;;;-0.83;82.94
46392;BME280;32098;49.448;7.904;2023-01-31T05:28:36;99110.84;;;-0.86;83.10
46392;BME280;32098;49.448;7.904;2023-01-31T05:31:05;99126.31;;;-0.83;83.26
46392;BME280;32098;49.448;7.904;2023-01-31T05:33:32;99126.06;;;-0.80;83.24
46392;BME280;32098;49.448;7.904;2023-01-31T05:36:00;99131.28;;;-0.80;83.17
46392;BME280;32098;49.448;7.904;2023-01-31T05:38:27;99135.69;;;-0.90;82.71
46392;BME280;32098;49.448;7.904;2023-01-31T05:40:53;99124.44;;;-1.12;82.05
46392;BME280;32098;49.448;7.904;2023-01-31T05:43:20;99140.06;;;-1.10;83.45
46392;BME280;32098;49.448;7.904;2023-01-31T05:45:47;99149.16;;;-1.05;82.68
46392;BME280;32098;49.448;7.904;2023-01-31T05:48:14;99145.69;;;-1.15;82.94
46392;BME280;32098;49.448;7.904;2023-01-31T05:50:41;99147.91;;;-1.10;82.08
46392;BME280;32098;49.448;7.904;2023-01-31T05:53:07;99140.06;;;-1.10;83.63
46392;BME280;32098;49.448;7.904;2023-01-31T05:55:34;99054.94;;;-1.65;83.96
46392;BME280;32098;49.448;7.904;2023-01-31T05:58:01;99146.72;;;-0.96;84.11
46392;BME280;32098;49.448;7.904;2023-01-31T06:00:27;99137.88;;;-0.95;84.26
46392;BME280;32098;49.448;7.904;2023-01-31T06:02:57;99146.72;;;-0.96;84.98
46392;BME280;32098;49.448;7.904;2023-01-31T06:05:25;99146.19;;;-0.90;84.75
46392;BME280;32098;49.448;7.904;2023-01-31T06:07:52;99164.38;;;-0.89;84.58
46392;BME280;32098;49.448;7.904;2023-01-31T06:10:19;99159.81;;;-0.96;85.31
46392;BME280;32098;49.448;7.904;2023-01-31T06:12:46;99139.47;;;-1.14;84.89
46392;BME280;32098;49.448;7.904;2023-01-31T06:15:13;99155.25;;;-0.94;85.94
46392;BME280;32098;49.448;7.904;2023-01-31T06:17:39;99150.88;;;-0.84;85.84
46392;BME280;32098;49.448;7.904;2023-01-31T06:20:06;99164.72;;;-0.73;85.97
46392;BME280;32098;49.448;7.904;2023-01-31T06:22:32;99162.25;;;-0.65;86.60
46392;BME280;32098;49.448;7.904;2023-01-31T06:24:59;99158.94;;;-0.57;86.15
46392;BME280;32098;49.448;7.904;2023-01-31T06:27:26;99156.44;;;-0.49;85.87
46392;BME280;32098;49.448;7.904;2023-01-31T06:29:52;99156.75;;;-0.52;85.85
46392;BME280;32098;49.448;7.904;2023-01-31T06:32:18;99160.31;;;-0.44;86.16
46392;BME280;32098;49.448;7.904;2023-01-31T06:34:45;99159.22;;;-0.41;85.90
46392;BME280;32098;49.448;7.904;2023-01-31T06:37:11;99151.63;;;-0.34;86.24
46392;BME280;32098;49.448;7.904;2023-01-31T06:39:38;99151.22;;;-0.30;85.89
46392;BME280;32098;49.448;7.904;2023-01-31T06:42:04;99131.72;;;-0.37;86.19
46392;BME280;32098;49.448;7.904;2023-01-31T06:44:31;99147.34;;;-0.26;86.02
46392;BME280;32098;49.448;7.904;2023-01-31T06:47:00;99159.22;;;-0.22;85.71
46392;BME280;32098;49.448;7.904;2023-01-31T06:49:26;99154.81;;;-0.21;85.56
46392;BME280;32098;49.448;7.904;2023-01-31T06:51:53;99156.72;;;-0.14;85.58
46392;BME280;32098;49.448;7.904;2023-01-31T06:54:19;99149.53;;;-0.12;85.49
46392;BME280;32098;49.448;7.904;2023-01-31T06:56:46;99145.81;;;-0.19;85.37
46392;BME280;32098;49.448;7.904;2023-01-31T06:59:12;99158.41;;;-0.13;85.39
46392;BME280;32098;49.448;7.904;2023-01-31T07:01:39;99155.63;;;-0.11;85.75
46392;BME280;32098;49.448;7.904;2023-01-31T07:04:05;99155.47;;;-0.19;85.91
46392;BME280;32098;49.448;7.904;2023-01-31T07:06:32;99157.84;;;-0.16;86.16
46392;BME280;32098;49.448;7.904;2023-01-31T07:08:59;99154.09;;;-0.14;86.36
46392;BME280;32098;49.448;7.904;2023-01-31T07:11:25;99146.53;;;-0.07;86.08
46392;BME280;32098;49.448;7.904;2023-01-31T07:13:51;99150.81;;;-0.16;86.56
46392;BME280;32098;49.448;7.904;2023-01-31T07:16:18;99158.94;;;-0.09;86.74
46392;BME280;32098;49.448;7.904;2023-01-31T07:18:45;99156.19;;;-0.08;87.02
46392;BME280;32098;49.448;7.904;2023-01-31T07:21:11;99152.47;;;-0.15;87.08
46392;BME280;32098;49.448;7.904;2023-01-31T07:23:38;99164.75;;;-0.06;87.33
46392;BME280;32098;49.448;7.904;2023-01-31T07:26:05;99163.66;;;-0.03;87.70
46392;BME280;32098;49.448;7.904;2023-01-31T07:28:31;99163.91;;;0.03;87.53
46392;BME280;32098;49.448;7.904;2023-01-31T07:31:06;99163.91;;;-0.06;87.85
46392;BME280;32098;49.448;7.904;2023-01-31T07:33:33;99161.69;;;-0.01;87.91
46392;BME280;32098;49.448;7.904;2023-01-31T07:36:03;99171.78;;;0.03;87.81
46392;BME280;32098;49.448;7.904;2023-01-31T07:38:31;99152.56;;;-0.07;87.63
46392;BME280;32098;49.448;7.904;2023-01-31T07:41:02;99162.81;;;-0.04;87.85
46392;BME280;32098;49.448;7.904;2023-01-31T07:43:30;99160.19;;;-0.04;87.82
46392;BME280;32098;49.448;7.904;2023-01-31T07:45:57;99159.91;;;-0.01;87.53
46392;BME280;32098;49.448;7.904;2023-01-31T07:48:24;99158.25;;;0.08;88.19
46392;BME280;32098;49.448;7.904;2023-01-31T07:50:52;99130.78;;;-0.07;87.50
46392;BME280;32098;49.448;7.904;2023-01-31T07:53:19;99153.69;;;0.10;87.88
46392;BME280;32098;49.448;7.904;2023-01-31T07:55:45;99164.47;;;0.07;87.66
46392;BME280;32098;49.448;7.904;2023-01-31T07:58:14;99165.72;;;0.12;87.92
46392;BME280;32098;49.448;7.904;2023-01-31T08:00:41;99167.09;;;-0.03;87.91
46392;BME280;32098;49.448;7.904;2023-01-31T08:03:29;99167.38;;;0.04;87.96
46392;BME280;32098;49.448;7.904;2023-01-31T08:06:09;99160.06;;;0.07;87.69
46392;BME280;32098;49.448;7.904;2023-01-31T08:08:37;99167.94;;;0.07;87.97
46392;BME280;32098;49.448;7.904;2023-01-31T08:11:05;99163.63;;;0.06;87.60
46392;BME280;32098;49.448;7.904;2023-01-31T08:13:33;99154.13;;;0.05;87.96
46392;BME280;32098;49.448;7.904;2023-01-31T08:16:03;99164.72;;;0.13;88.01
46392;BME280;32098;49.448;7.904;2023-01-31T08:18:30;99166.13;;;0.17;88.27
46392;BME280;32098;49.448;7.904;2023-01-31T08:20:57;99158.66;;;0.13;87.96
46392;BME280;32098;49.448;7.904;2023-01-31T08:23:25;99160.19;;;0.15;87.90
46392;BME280;32098;49.448;7.904;2023-01-31T08:25:58;99157.84;;;0.12;88.41
46392;BME280;32098;49.448;7.904;2023-01-31T08:28:25;99159.75;;;0.20;88.06
46392;BME280;32098;49.448;7.904;2023-01-31T08:30:52;99158.22;;;0.27;88.29
46392;BME280;32098;49.448;7.904;2023-01-31T08:33:35;99158.47;;;0.34;88.09
46392;BME280;32098;49.448;7.904;2023-01-31T08:38:45;99162.19;;;0.31;88.34
46392;BME280;32098;49.448;7.904;2023-01-31T08:41:12;99138.31;;;0.24;87.75
46392;BME280;32098;49.448;7.904;2023-01-31T08:43:39;99157.22;;;0.38;87.59
46392;BME280;32098;49.448;7.904;2023-01-31T08:46:23;99157.06;;;0.39;87.92
46392;BME280;32098;49.448;7.904;2023-01-31T08:48:50;99162.22;;;0.41;88.00
46392;BME280;32098;49.448;7.904;2023-01-31T08:51:17;99178.66;;;0.43;88.20
46392;BME280;32098;49.448;7.904;2023-01-31T08:53:44;99176.19;;;0.32;87.80
46392;BME280;32098;49.448;7.904;2023-01-31T08:56:12;99134.75;;;0.06;87.80
46392;BME280;32098;49.448;7.904;2023-01-31T08:58:41;99184.63;;;0.35;88.38
46392;BME280;32098;49.448;7.904;2023-01-31T09:01:10;99179.88;;;0.39;88.02
46392;BME280;32098;49.448;7.904;2023-01-31T09:03:37;99180.97;;;0.46;88.04
46392;BME280;32098;49.448;7.904;2023-01-31T09:06:06;99174.47;;;0.50;87.98
46392;BME280;32098;49.448;7.904;2023-01-31T09:08:33;99155.00;;;0.43;87.66
46392;BME280;32098;49.448;7.904;2023-01-31T09:11:00;99170.84;;;0.60;87.57
46392;BME280;32098;49.448;7.904;2023-01-31T09:13:28;99171.25;;;0.65;87.25
46392;BME280;32098;49.448;7.904;2023-01-31T09:16:07;99166.25;;;0.72;87.18
46392;BME280;32098;49.448;7.904;2023-01-31T09:18:37;99156.28;;;0.66;86.81
46392;BME280;32098;49.448;7.904;2023-01-31T09:21:12;99161.84;;;0.63;86.98
46392;BME280;32098;49.448;7.904;2023-01-31T09:23:40;99168.03;;;0.71;86.89
46392;BME280;32098;49.448;7.904;2023-01-31T09:26:09;99172.19;;;0.74;86.71
46392;BME280;32098;49.448;7.904;2023-01-31T09:28:36;99161.94;;;0.80;86.77
46392;BME280;32098;49.448;7.904;2023-01-31T09:31:08;99163.97;;;0.86;86.62
46392;BME280;32098;49.448;7.904;2023-01-31T09:33:35;99161.09;;;0.80;86.70
46392;BME280;32098;49.448;7.904;2023-01-31T09:36:05;99152.31;;;0.89;86.30
46392;BME280;32098;49.448;7.904;2023-01-31T09:38:32;99153.72;;;0.83;86.42
46392;BME280;32098;49.448;7.904;2023-01-31T09:41:02;99154.44;;;0.76;86.43
46392;BME280;32098;49.448;7.904;2023-01-31T09:43:33;99160.09;;;0.81;86.73
46392;BME280;32098;49.448;7.904;2023-01-31T09:46:05;99173.13;;;0.82;86.65
46392;BME280;32098;49.448;7.904;2023-01-31T09:48:36;99174.75;;;0.83;86.65
46392;BME280;32098;49.448;7.904;2023-01-31T09:51:05;99173.13;;;0.82;86.87
46392;BME280;32098;49.448;7.904;2023-01-31T09:53:34;99175.31;;;0.87;86.74
46392;BME280;32098;49.448;7.904;2023-01-31T10:01:31;99172.50;;;0.98;86.15
46392;BME280;32098;49.448;7.904;2023-01-31T10:04:19;99176.66;;;0.91;85.97
46392;BME280;32098;49.448;7.904;2023-01-31T10:07:02;99176.66;;;1.01;86.11
46392;BME280;32098;49.448;7.904;2023-01-31T10:12:11;99178.00;;;1.05;85.86
46392;BME280;32098;49.448;7.904;2023-01-31T10:14:47;99162.06;;;1.06;85.87
46392;BME280;32098;49.448;7.904;2023-01-31T10:17:22;99150.88;;;1.04;85.76
46392;BME280;32098;49.448;7.904;2023-01-31T10:19:58;99166.66;;;1.04;85.81
46392;BME280;32098;49.448;7.904;2023-01-31T10:22:56;99150.03;;;1.04;85.77
46392;BME280;32098;49.448;7.904;2023-01-31T10:28:19;99151.94;;;1.11;85.80
46392;BME280;32098;49.448;7.904;2023-01-31T10:33:54;99141.22;;;1.22;85.50
46392;BME280;32098;49.448;7.904;2023-01-31T10:36:30;99139.06;;;1.35;85.36
46392;BME280;32098;49.448;7.904;2023-01-31T10:39:06;99129.59;;;1.42;85.07
46392;BME280;32098;49.448;7.904;2023-01-31T10:42:02;99129.88;;;1.39;84.43
46392;BME280;32098;49.448;7.904;2023-01-31T10:44:43;99138.31;;;1.25;84.58
46392;BME280;32098;49.448;7.904;2023-01-31T10:47:15;99137.69;;;1.31;84.22
46392;BME280;32098;49.448;7.904;2023-01-31T10:49:48;99132.50;;;1.22;84.37
46392;BME280;32098;49.448;7.904;2023-01-31T10:52:45;99120.25;;;1.30;84.61
46392;BME280;32098;49.448;7.904;2023-01-31T10:57:53;99112.06;;;1.33;83.96
46392;BME280;32098;49.448;7.904;2023-01-31T11:00:23;99105.44;;;1.29;83.94
46392;BME280;32098;49.448;7.904;2023-01-31T11:02:51;99103.34;;;1.33;83.32
46392;BME280;32098;49.448;7.904;2023-01-31T11:05:20;99108.84;;;1.39;83.74
46392;BME280;32098;49.448;7.904;2023-01-31T11:07:48;99094.63;;;1.32;83.58
46392;BME280;32098;49.448;7.904;2023-01-31T11:12:53;99086.88;;;1.48;83.48
46392;BME280;32098;49.448;7.904;2023-01-31T11:15:24;99076.66;;;1.45;83.44
46392;BME280;32098;49.448;7.904;2023-01-31T11:17:52;99074.69;;;1.47;83.35
46392;BME280;32098;49.448;7.904;2023-01-31T11:20:24;99067.78;;;1.46;82.79
46392;BME280;32098;49.448;7.904;2023-01-31T11:22:53;99061.84;;;1.44;83.11
46392;BME280;32098;49.448;7.904;2023-01-31T11:25:22;99047.47;;;1.57;82.38
46392;BME280;32098;49.448;7.904;2023-01-31T11:27:53;99039.84;;;1.71;82.20
46392;BME280;32098;49.448;7.904;2023-01-31T11:30:21;99040.38;;;1.75;81.58
46392;BME280;32098;49.448;7.904;2023-01-31T11:32:48;99027.81;;;1.69;81.28
46392;BME280;32098;49.448;7.904;2023-01-31T11:37:50;99048.22;;;1.92;80.49
46392;BME280;32098;49.448;7.904;2023-01-31T11:40:31;99054.88;;;1.79;80.32
46392;BME280;32098;49.448;7.904;2023-01-31T11:43:00;99058.88;;;1.83;80.15
46392;BME280;32098;49.448;7.904;2023-01-31T11:45:30;99051.19;;;1.72;80.20
46392;BME280;32098;49.448;7.904;2023-01-31T11:48:04;99049.34;;;1.64;80.33
46392;BME280;32098;49.448;7.904;2023-01-31T11:50:36;99038.06;;;1.54;80.60
46392;BME280;32098;49.448;7.904;2023-01-31T11:56:17;99005.03;;;1.60;81.16
46392;BME280;32098;49.448;7.904;2023-01-31T11:58:47;98997.72;;;1.45;81.24
46392;BME280;32098;49.448;7.904;2023-01-31T12:01:17;99000.06;;;1.57;81.68
46392;BME280;32098;49.448;7.904;2023-01-31T12:03:46;99004.22;;;1.59;81.57
46392;BME280;32098;49.448;7.904;2023-01-31T12:06:33;98995.03;;;1.63;81.52
46392;BME280;32098;49.448;7.904;2023-01-31T12:09:18;98977.78;;;1.43;81.84
46392;BME280;32098;49.448;7.904;2023-01-31T12:11:56;98983.78;;;1.53;81.56
46392;BME280;32098;49.448;7.904;2023-01-31T12:14:36;98958.22;;;1.45;81.58
46392;BME280;32098;49.448;7.904;2023-01-31T12:17:03;98968.19;;;1.60;82.02
46392;BME280;32098;49.448;7.904;2023-01-31T12:19:52;98966.28;;;1.70;81.92
46392;BME280;32098;49.448;7.904;2023-01-31T12:22:29;98950.38;;;1.53;82.02
46392;BME280;32098;49.448;7.904;2023-01-31T12:25:14;98946.59;;;1.56;82.09
46392;BME280;32098;49.448;7.904;2023-01-31T12:28:31;98940.00;;;1.52;82.49
46392;BME280;32098;49.448;7.904;2023-01-31T12:31:18;98927.22;;;1.57;82.61
46392;BME280;32098;49.448;7.904;2023-01-31T12:37:18;98905.91;;;1.42;82.64
46392;BME280;32098;49.448;7.904;2023-01-31T12:42:53;98944.69;;;1.66;82.19
46392;BME280;32098;49.448;7.904;2023-01-31T12:45:37;98949.03;;;1.75;81.97
46392;BME280;32098;49.448;7.904;2023-01-31T12:51:09;98940.00;;;1.78;81.83
46392;BME280;32098;49.448;7.904;2023-01-31T12:53:50;98929.06;;;1.65;82.44
46392;BME280;32098;49.448;7.904;2023-01-31T12:56:45;98935.72;;;1.77;82.10
46392;BME280;32098;49.448;7.904;2023-01-31T13:02:22;98915.78;;;1.74;82.41
46392;BME280;32098;49.448;7.904;2023-01-31T13:05:16;98918.41;;;1.74;82.94
46392;BME280;32098;49.448;7.904;2023-01-31T13:08:02;98892.91;;;1.75;82.61
46392;BME280;32098;49.448;7.904;2023-01-31T13:10:42;98885.84;;;1.75;82.65
46392;BME280;32098;49.448;7.904;2023-01-31T13:13:17;98860.75;;;1.55;82.63
46392;BME280;32098;49.448;7.904;2023-01-31T13:15:53;98900.19;;;1.81;82.74
46392;BME280;32098;49.448;7.904;2023-01-31T13:18:22;98884.84;;;1.68;82.84
46392;BME280;32098;49.448;7.904;2023-01-31T13:20:54;98894.41;;;1.77;83.07
46392;BME280;32098;49.448;7.904;2023-01-31T13:23:26;98874.91;;;1.62;83.37
46392;BME280;32098;49.448;7.904;2023-01-31T13:26:08;98877.91;;;1.67;83.60
46392;BME280;32098;49.448;7.904;2023-01-31T13:29:00;98864.25;;;1.72;83.14
46392;BME280;32098;49.448;7.904;2023-01-31T13:37:06;98876.09;;;1.68;83.59
46392;BME280;32098;49.448;7.904;2023-01-31T13:39:38;98885.31;;;1.72;83.48
46392;BME280;32098;49.448;7.904;2023-01-31T13:42:06;98889.75;;;1.63;84.12
46392;BME280;32098;49.448;7.904;2023-01-31T13:44:32;98904.59;;;1.72;83.84
46392;BME280;32098;49.448;7.904;2023-01-31T13:47:13;98903.19;;;1.86;83.18
46392;BME280;32098;49.448;7.904;2023-01-31T13:49:49;98904.00;;;1.86;82.99
46392;BME280;32098;49.448;7.904;2023-01-31T13:52:30;98907.16;;;1.90;83.08
46392;BME280;32098;49.448;7.904;2023-01-31T13:55:02;98885.75;;;1.93;82.90
46392;BME280;32098;49.448;7.904;2023-01-31T13:57:31;98880.50;;;1.93;82.69
46392;BME280;32098;49.448;7.904;2023-01-31T14:00:08;98891.03;;;1.93;82.88
46392;BME280;32098;49.448;7.904;2023-01-31T14:02:35;98896.31;;;1.93;82.82
46392;BME280;32098;49.448;7.904;2023-01-31T14:05:48;98797.13;;;1.34;82.62
46392;BME280;32098;49.448;7.904;2023-01-31T14:08:33;98885.56;;;1.86;83.36
46392;BME280;32098;49.448;7.904;2023-01-31T14:11:29;98890.63;;;1.80;83.35
46392;BME280;32098;49.448;7.904;2023-01-31T14:14:17;98889.84;;;1.87;83.61
46392;BME280;32098;49.448;7.904;2023-01-31T14:16:45;98892.09;;;1.74;84.12
46392;BME280;32098;49.448;7.904;2023-01-31T14:24:55;98876.50;;;1.81;84.13
46392;BME280;32098;49.448;7.904;2023-01-31T14:30:14;98870.22;;;1.82;84.48
46392;BME280;32098;49.448;7.904;2023-01-31T14:32:48;98863.34;;;1.89;84.47
46392;BME280;32098;49.448;7.904;2023-01-31T14:38:34;98866.47;;;1.84;84.25
46392;BME280;32098;49.448;7.904;2023-01-31T14:41:21;98884.59;;;1.87;84.75
46392;BME280;32098;49.448;7.904;2023-01-31T14:50:19;98900.25;;;1.97;84.20
46392;BME280;32098;49.448;7.904;2023-01-31T14:53:19;98895.16;;;1.95;84.60
46392;BME280;32098;49.448;7.904;2023-01-31T14:58:43;98904.25;;;2.01;85.45
46392;BME280;32098;49.448;7.904;2023-01-31T15:01:11;98895.00;;;1.97;85.58
46392;BME280;32098;49.448;7.904;2023-01-31T15:03:53;98903.56;;;1.99;85.49
46392;BME280;32098;49.448;7.904;2023-01-31T15:06:29;98899.28;;;1.98;85.84